Time;durP1;ratioP1;P1;durP2;ratioP2;P2;SDS_P1;SDS_P2;PMS_P1;PMS_P2;Temp;Humidity;BMP_temperature;BMP_pressure;BME280_temperature;BME280_humidity;BME280_pressure;Samples;Min_cycle;Max_cycle;Signal;HPM_P1;HPM_P2
2023/09/21 00:00:09;;;;;;;;;;;;;;;17.88;91.67;99794.47;4956046;28;19914;-73
2023/09/21 00:02:35;;;;;;;;;;;;;;;17.90;91.55;99799.63;4956342;28;20149;-73
2023/09/21 00:05:00;;;;;;;;;;;;;;;17.90;91.60;99805.78;4955609;29;19985;-73
2023/09/21 00:07:27;;;;;;;;;;;;;;;17.87;91.66;99803.41;4956211;28;20245;-73
2023/09/21 00:09:52;;;;;;;;;;;;;;;17.88;91.55;99798.94;4975258;28;20281;-73
2023/09/21 00:12:18;;;;;;;;;;;;;;;17.86;91.17;99796.41;4975016;28;19946;-73
2023/09/21 00:14:43;;;;;;;;;;;;;;;17.86;91.25;99795.59;4975192;28;19925;-73
2023/09/21 00:17:09;;;;;;;;;;;;;;;17.86;91.75;99798.25;4974816;28;20208;-73
2023/09/21 00:19:35;;;;;;;;;;;;;;;17.88;91.69;99798.94;4974182;28;19920;-73
2023/09/21 00:22:01;;;;;;;;;;;;;;;17.89;91.90;99797.97;4976352;28;19937;-73
2023/09/21 00:24:29;;;;;;;;;;;;;;;17.87;91.76;99786.69;4974955;28;20121;-73
2023/09/21 00:26:56;;;;;;;;;;;;;;;17.90;91.54;99797.00;4991359;28;19914;-73
2023/09/21 00:29:22;;;;;;;;;;;;;;;17.87;91.59;99790.16;4975094;28;19951;-73
2023/09/21 00:31:48;;;;;;;;;;;;;;;17.87;91.80;99781.38;4974835;28;20065;-73
2023/09/21 00:34:14;;;;;;;;;;;;;;;17.87;91.96;99776.09;4958996;28;19968;-73
2023/09/21 00:36:45;;;;;;;;;;;;;;;17.87;91.85;99776.09;4972831;28;19918;-73
2023/09/21 00:39:11;;;;;;;;;;;;;;;17.88;91.76;99770.63;4974652;28;20140;-73
2023/09/21 00:41:37;;;;;;;;;;;;;;;17.89;91.77;99782.09;4974498;28;19906;-73
2023/09/21 00:44:07;;;;;;;;;;;;;;;17.89;91.61;99774.16;4974893;28;20155;-73
2023/09/21 00:46:34;;;;;;;;;;;;;;;17.89;91.88;99772.31;4976427;28;19913;-73
2023/09/21 00:49:00;;;;;;;;;;;;;;;17.86;92.00;99775.22;4974658;28;19918;-73
2023/09/21 00:51:26;;;;;;;;;;;;;;;17.88;92.07;99764.50;4976289;28;19920;-73
2023/09/21 00:53:54;;;;;;;;;;;;;;;17.88;92.04;99767.16;4974606;28;19960;-73
2023/09/21 00:56:21;;;;;;;;;;;;;;;17.88;92.27;99761.84;4975041;28;19945;-73
2023/09/21 00:58:48;;;;;;;;;;;;;;;17.90;92.01;99757.25;4974401;28;19918;-73
2023/09/21 01:04:17;;;;;;;;;;;;;;;17.92;91.99;99750.88;5074715;23;20231;-73
2023/09/21 01:06:45;;;;;;;;;;;;;;;17.93;91.96;99744.59;4999410;28;19910;-73
2023/09/21 01:09:13;;;;;;;;;;;;;;;17.92;92.10;99744.72;5013985;28;19987;-73
2023/09/21 01:11:38;;;;;;;;;;;;;;;17.93;92.14;99754.34;5006844;28;19921;-73
2023/09/21 01:14:04;;;;;;;;;;;;;;;17.92;92.19;99747.38;5015050;28;19913;-73
2023/09/21 01:16:30;;;;;;;;;;;;;;;17.91;92.35;99740.41;5014922;28;19921;-73
2023/09/21 01:18:55;;;;;;;;;;;;;;;17.91;92.65;99738.59;5014633;28;19941;-73
2023/09/21 01:21:34;;;;;;;;;;;;;;;17.93;92.30;99738.47;5006104;28;20167;-73
2023/09/21 01:24:00;;;;;;;;;;;;;;;17.94;92.36;99730.38;5008367;28;20126;-73
2023/09/21 01:26:26;;;;;;;;;;;;;;;17.94;92.39;99727.72;5015072;28;19952;-73
2023/09/21 01:28:51;;;;;;;;;;;;;;;17.95;92.49;99733.84;5014824;28;20220;-73
2023/09/21 01:31:17;;;;;;;;;;;;;;;17.96;92.42;99732.91;5018226;28;20111;-73
2023/09/21 01:33:43;;;;;;;;;;;;;;;17.98;92.52;99730.94;5018368;28;19913;-73
2023/09/21 01:36:09;;;;;;;;;;;;;;;17.97;92.41;99732.78;5018638;28;20105;-73
2023/09/21 01:38:37;;;;;;;;;;;;;;;17.98;92.56;99720.34;5017078;28;19937;-73
2023/09/21 01:41:03;;;;;;;;;;;;;;;17.99;92.42;99724.66;5013940;28;19905;-73
2023/09/21 01:43:28;;;;;;;;;;;;;;;17.99;92.60;99722.00;5018588;28;20218;-73
2023/09/21 01:45:53;;;;;;;;;;;;;;;18.00;92.44;99721.88;5009404;28;19932;-73
2023/09/21 01:48:19;;;;;;;;;;;;;;;18.00;92.75;99729.00;4998686;28;20009;-73
2023/09/21 01:50:48;;;;;;;;;;;;;;;18.01;92.70;99722.72;4998307;28;20092;-73
2023/09/21 01:53:13;;;;;;;;;;;;;;;18.02;92.68;99722.56;5004014;28;19928;-73
2023/09/21 01:55:39;;;;;;;;;;;;;;;18.03;92.60;99720.78;4997383;28;20354;-73
2023/09/21 01:58:05;;;;;;;;;;;;;;;18.01;92.51;99726.22;4998212;28;19913;-73
2023/09/21 02:00:34;;;;;;;;;;;;;;;18.03;92.44;99732.22;5000977;28;19924;-73
2023/09/21 02:02:59;;;;;;;;;;;;;;;18.05;92.20;99731.25;5005673;28;19913;-73
2023/09/21 02:05:27;;;;;;;;;;;;;;;18.08;92.25;99745.06;4984235;28;19997;-73
2023/09/21 02:07:55;;;;;;;;;;;;;;;18.09;92.54;99740.59;4984431;28;20251;-73
2023/09/21 02:10:20;;;;;;;;;;;;;;;18.11;92.76;99771.25;4979153;28;19917;-73
2023/09/21 02:12:54;;;;;;;;;;;;;;;18.12;94.20;99745.59;4979104;28;20238;-74
2023/09/21 02:15:19;;;;;;;;;;;;;;;18.12;94.72;99751.75;4983183;28;19918;-73
2023/09/21 02:17:45;;;;;;;;;;;;;;;18.10;96.10;99743.09;4977787;28;20306;-73
2023/09/21 02:20:14;;;;;;;;;;;;;;;18.08;96.74;99733.59;4978466;28;19924;-73
2023/09/21 02:23:05;;;;;;;;;;;;;;;18.06;97.16;99732.91;4969817;28;19981;-73
2023/09/21 02:25:40;;;;;;;;;;;;;;;18.07;97.11;99729.28;4977472;28;20003;-73
2023/09/21 02:28:09;;;;;;;;;;;;;;;18.04;97.13;99717.13;4988644;28;19918;-73
2023/09/21 02:30:34;;;;;;;;;;;;;;;18.03;97.23;99718.13;4978266;28;20217;-73
2023/09/21 02:32:59;;;;;;;;;;;;;;;18.03;97.20;99723.44;4977770;28;19989;-73
2023/09/21 02:35:29;;;;;;;;;;;;;;;18.06;96.76;99709.88;4978394;28;19925;-73
2023/09/21 02:37:55;;;;;;;;;;;;;;;18.07;96.76;99697.50;4991370;28;19918;-73
2023/09/21 02:40:22;;;;;;;;;;;;;;;18.07;96.60;99690.38;4978227;28;19918;-73
2023/09/21 02:42:49;;;;;;;;;;;;;;;18.07;97.03;99686.91;4988233;28;19925;-74
2023/09/21 02:45:14;;;;;;;;;;;;;;;18.06;97.19;99680.75;4990897;28;19918;-73
2023/09/21 02:47:41;;;;;;;;;;;;;;;18.03;97.22;99689.81;4979290;28;20152;-73
2023/09/21 02:50:21;;;;;;;;;;;;;;;18.05;97.04;99702.94;4978056;28;19921;-73
2023/09/21 02:52:46;;;;;;;;;;;;;;;18.02;97.53;99696.09;4982414;28;19976;-73
2023/09/21 02:55:13;;;;;;;;;;;;;;;18.03;97.23;99697.75;4977978;28;19922;-73
2023/09/21 02:57:38;;;;;;;;;;;;;;;18.03;98.13;99699.59;4992102;28;20247;-74
2023/09/21 03:00:12;;;;;;;;;;;;;;;18.02;98.42;99708.50;4997765;28;20237;-72
2023/09/21 03:02:37;;;;;;;;;;;;;;;18.00;98.51;99698.03;4992592;28;19925;-72
2023/09/21 03:05:03;;;;;;;;;;;;;;;17.96;98.81;99699.28;4997969;28;20361;-72
2023/09/21 03:07:28;;;;;;;;;;;;;;;17.95;98.82;99710.03;4997281;28;20179;-72
2023/09/21 03:09:54;;;;;;;;;;;;;;;17.95;98.68;99699.44;4997344;28;19914;-73
2023/09/21 03:12:20;;;;;;;;;;;;;;;17.92;98.64;99702.34;4997831;28;19921;-72
2023/09/21 03:14:46;;;;;;;;;;;;;;;17.88;98.86;99693.84;4996983;28;19946;-72
2023/09/21 03:17:14;;;;;;;;;;;;;;;17.86;99.26;99693.13;4997341;28;20315;-72
2023/09/21 03:19:39;;;;;;;;;;;;;;;17.81;99.63;99690.06;4996590;28;20212;-72
2023/09/21 03:22:04;;;;;;;;;;;;;;;17.79;99.80;99695.47;4997156;28;19984;-73
2023/09/21 03:24:30;;;;;;;;;;;;;;;17.77;100.00;99693.94;4997461;28;19920;-73
2023/09/21 03:26:55;;;;;;;;;;;;;;;17.72;100.00;99697.00;4996907;28;20546;-72
2023/09/21 03:29:21;;;;;;;;;;;;;;;17.71;100.00;99692.66;4996999;28;19914;-72
2023/09/21 03:31:47;;;;;;;;;;;;;;;17.69;100.00;99691.13;4996209;28;19949;-73
2023/09/21 03:34:12;;;;;;;;;;;;;;;17.69;100.00;99689.31;4997170;28;19921;-73
2023/09/21 03:36:38;;;;;;;;;;;;;;;17.67;100.00;99690.44;4996266;28;20246;-73
2023/09/21 03:39:09;;;;;;;;;;;;;;;17.62;100.00;99686.38;4996593;28;19952;-73
2023/09/21 03:41:35;;;;;;;;;;;;;;;17.62;100.00;99689.00;4996481;28;19924;-74
2023/09/21 03:44:01;;;;;;;;;;;;;;;17.61;100.00;99682.06;4996730;28;20008;-72
2023/09/21 03:46:26;;;;;;;;;;;;;;;17.63;100.00;99674.00;4996380;28;20089;-73
2023/09/21 03:48:51;;;;;;;;;;;;;;;17.62;100.00;99682.91;4996089;28;20095;-73
2023/09/21 03:51:17;;;;;;;;;;;;;;;17.61;100.00;99670.66;4996350;28;19913;-73
2023/09/21 03:53:42;;;;;;;;;;;;;;;17.57;100.00;99670.09;4995837;28;20278;-72
2023/09/21 03:56:07;;;;;;;;;;;;;;;17.59;100.00;99673.44;4996243;28;19952;-73
2023/09/21 03:58:33;;;;;;;;;;;;;;;17.59;100.00;99667.28;5011484;28;19931;-73
2023/09/21 04:01:04;;;;;;;;;;;;;;;17.58;100.00;99668.25;4995603;28;20155;-73
2023/09/21 04:03:29;;;;;;;;;;;;;;;17.57;100.00;99670.09;4995695;28;20153;-73
2023/09/21 04:05:54;;;;;;;;;;;;;;;17.54;100.00;99662.41;4996108;28;19963;-73
2023/09/21 04:08:20;;;;;;;;;;;;;;;17.55;100.00;99663.22;4995989;28;19917;-73
2023/09/21 04:10:45;;;;;;;;;;;;;;;17.55;100.00;99664.06;4996086;28;19984;-73
2023/09/21 04:13:10;;;;;;;;;;;;;;;17.54;100.00;99659.75;4996198;28;19921;-73
2023/09/21 04:15:35;;;;;;;;;;;;;;;17.52;100.00;99651.13;4995938;28;20333;-73
2023/09/21 04:18:01;;;;;;;;;;;;;;;17.51;100.00;99652.06;4995444;28;19917;-73
2023/09/21 04:20:31;;;;;;;;;;;;;;;17.52;100.00;99651.13;4996151;28;20180;-73
2023/09/21 04:22:56;;;;;;;;;;;;;;;17.52;100.00;99651.13;4995461;28;19981;-73
2023/09/21 04:25:22;;;;;;;;;;;;;;;17.52;100.00;99650.25;4995853;28;19914;-73
2023/09/21 04:27:48;;;;;;;;;;;;;;;17.46;100.00;99644.56;4995523;28;19924;-73
2023/09/21 04:30:15;;;;;;;;;;;;;;;17.47;100.00;99648.03;4996089;28;19965;-73
2023/09/21 04:32:41;;;;;;;;;;;;;;;17.43;100.00;99644.81;4988434;28;20035;-73
2023/09/21 04:35:07;;;;;;;;;;;;;;;17.44;100.00;99643.00;4976636;28;19913;-73
2023/09/21 04:37:38;;;;;;;;;;;;;;;17.44;100.00;99645.66;4995721;28;19920;-73
2023/09/21 04:40:04;;;;;;;;;;;;;;;17.38;100.00;99644.38;4976519;28;20129;-73
2023/09/21 04:42:30;;;;;;;;;;;;;;;17.39;100.00;99645.22;4976469;28;20294;-73
2023/09/21 04:44:55;;;;;;;;;;;;;;;17.39;100.00;99646.06;4976109;28;19914;-73
2023/09/21 04:47:20;;;;;;;;;;;;;;;17.38;100.00;99643.56;4976248;28;20076;-73
2023/09/21 04:49:48;;;;;;;;;;;;;;;17.35;100.00;99642.00;4975877;28;19914;-73
2023/09/21 04:52:13;;;;;;;;;;;;;;;17.37;100.00;99647.16;4976279;28;19918;-73
2023/09/21 04:54:38;;;;;;;;;;;;;;;17.38;100.00;99638.25;4975913;28;19914;-73
2023/09/21 04:57:04;;;;;;;;;;;;;;;17.36;100.00;99625.16;4990518;28;19917;-73
2023/09/21 04:59:29;;;;;;;;;;;;;;;17.36;100.00;99641.03;4995481;28;19917;-73
2023/09/21 05:01:55;;;;;;;;;;;;;;;17.33;100.00;99630.72;4995061;28;19913;-73
2023/09/21 05:04:21;;;;;;;;;;;;;;;17.33;100.00;99640.47;4995951;28;19929;-73
2023/09/21 05:06:46;;;;;;;;;;;;;;;17.32;100.00;99639.66;4998968;28;19918;-73
2023/09/21 05:09:12;;;;;;;;;;;;;;;17.31;100.00;99647.72;5000221;28;19917;-73
2023/09/21 05:11:40;;;;;;;;;;;;;;;17.30;100.00;99654.81;4995537;28;19925;-73
2023/09/21 05:14:06;;;;;;;;;;;;;;;17.30;100.00;99653.97;4998633;28;20004;-73
2023/09/21 05:16:34;;;;;;;;;;;;;;;17.25;100.00;99659.69;4999217;28;20224;-73
2023/09/21 05:18:59;;;;;;;;;;;;;;;17.23;100.00;99646.56;4998501;28;19940;-73
2023/09/21 05:21:25;;;;;;;;;;;;;;;17.22;100.00;99655.47;4998585;28;20219;-73
2023/09/21 05:23:50;;;;;;;;;;;;;;;17.21;100.00;99668.84;4998850;28;19924;-72
2023/09/21 05:26:16;;;;;;;;;;;;;;;17.22;100.00;99681.94;4992051;28;19924;-72
2023/09/21 05:28:41;;;;;;;;;;;;;;;17.22;100.00;99689.03;4996358;28;20395;-72
2023/09/21 05:31:09;;;;;;;;;;;;;;;17.26;100.00;99717.75;4997810;28;19916;-73
2023/09/21 05:33:35;;;;;;;;;;;;;;;17.24;100.00;99729.41;4997660;28;19960;-72
2023/09/21 05:36:04;;;;;;;;;;;;;;;17.26;100.00;99732.78;4997413;28;19914;-72
2023/09/21 05:38:30;;;;;;;;;;;;;;;17.11;100.00;99726.16;4995292;28;20447;-73
2023/09/21 05:40:55;;;;;;;;;;;;;;;16.94;100.00;99723.16;4998382;28;19924;-73
2023/09/21 05:43:20;;;;;;;;;;;;;;;16.91;100.00;99720.75;4997055;28;20150;-72
2023/09/21 05:45:46;;;;;;;;;;;;;;;16.86;100.00;99717.66;4997781;28;19917;-73
2023/09/21 05:48:17;;;;;;;;;;;;;;;16.79;100.00;99722.63;5010838;28;19952;-74
2023/09/21 05:50:42;;;;;;;;;;;;;;;16.67;100.00;99729.75;4997155;28;20118;-74
2023/09/21 05:53:08;;;;;;;;;;;;;;;16.61;100.00;99732.09;4996981;28;19984;-74
2023/09/21 05:55:33;;;;;;;;;;;;;;;16.51;100.00;99724.09;4998522;28;19985;-73
2023/09/21 05:57:58;;;;;;;;;;;;;;;16.41;100.00;99724.03;4999183;28;19985;-74
2023/09/21 06:00:24;;;;;;;;;;;;;;;16.37;100.00;99727.03;4998450;28;19921;-74
2023/09/21 06:02:49;;;;;;;;;;;;;;;16.31;100.00;99728.38;5000587;28;19917;-74
2023/09/21 06:05:14;;;;;;;;;;;;;;;16.25;100.00;99723.59;5009317;28;19921;-74
2023/09/21 06:07:39;;;;;;;;;;;;;;;16.17;100.00;99729.53;4998768;28;19917;-74
2023/09/21 06:10:06;;;;;;;;;;;;;;;16.07;100.00;99726.78;4997339;28;19917;-74
2023/09/21 06:12:31;;;;;;;;;;;;;;;15.99;100.00;99738.91;4997278;28;19921;-73
2023/09/21 06:14:58;;;;;;;;;;;;;;;15.92;100.00;99739.44;4995037;28;20004;-73
2023/09/21 06:17:23;;;;;;;;;;;;;;;15.87;100.00;99736.31;4994630;28;19917;-73
2023/09/21 06:19:48;;;;;;;;;;;;;;;15.81;100.00;99739.44;4998478;28;20113;-73
2023/09/21 06:22:14;;;;;;;;;;;;;;;15.80;100.00;99745.69;5004549;28;19984;-73
2023/09/21 06:24:42;;;;;;;;;;;;;;;15.78;100.00;99736.22;5002396;28;20187;-74
2023/09/21 06:27:08;;;;;;;;;;;;;;;15.78;100.00;99730.94;5002450;28;19941;-73
2023/09/21 06:29:33;;;;;;;;;;;;;;;15.76;100.00;99717.84;4998261;28;19918;-73
2023/09/21 06:32:00;;;;;;;;;;;;;;;15.75;100.00;99721.44;4993926;28;20112;-73
2023/09/21 06:34:25;;;;;;;;;;;;;;;15.73;100.00;99713.66;4998898;28;19918;-73
2023/09/21 06:36:51;;;;;;;;;;;;;;;15.68;100.00;99712.31;4998997;28;20097;-73
2023/09/21 06:39:16;;;;;;;;;;;;;;;15.67;100.00;99713.28;4995525;28;19917;-73
2023/09/21 06:41:44;;;;;;;;;;;;;;;15.68;100.00;99722.88;4994302;28;19918;-73
2023/09/21 06:44:09;;;;;;;;;;;;;;;15.69;100.00;99737.75;4998724;28;19917;-73
2023/09/21 06:46:34;;;;;;;;;;;;;;;15.68;100.00;99746.63;4990658;28;20107;-73
2023/09/21 06:49:02;;;;;;;;;;;;;;;15.67;100.00;99755.50;4995601;28;19984;-73
2023/09/21 06:51:28;;;;;;;;;;;;;;;15.67;100.00;99761.63;4998629;28;19917;-73
2023/09/21 06:53:53;;;;;;;;;;;;;;;15.63;100.00;99770.75;4995595;28;19925;-73
2023/09/21 06:56:21;;;;;;;;;;;;;;;15.64;100.00;99763.66;4997006;28;19918;-73
2023/09/21 06:58:46;;;;;;;;;;;;;;;15.62;100.00;99763.78;4996359;28;20318;-73
2023/09/21 07:01:11;;;;;;;;;;;;;;;15.62;100.00;99757.69;4997411;28;19918;-73
2023/09/21 07:03:37;;;;;;;;;;;;;;;15.62;100.00;99755.03;4996798;28;19917;-73
2023/09/21 07:06:02;;;;;;;;;;;;;;;15.60;100.00;99754.31;4996870;28;19988;-73
2023/09/21 07:08:27;;;;;;;;;;;;;;;15.62;100.00;99749.75;5003289;28;20231;-73
2023/09/21 07:10:54;;;;;;;;;;;;;;;15.62;100.00;99742.66;5003239;28;19948;-73
2023/09/21 07:13:20;;;;;;;;;;;;;;;15.64;100.00;99755.75;4998247;28;20171;-73
2023/09/21 07:15:47;;;;;;;;;;;;;;;15.67;100.00;99763.44;4998701;28;20147;-73
2023/09/21 07:18:13;;;;;;;;;;;;;;;15.67;100.00;99766.91;4993332;28;19960;-73
2023/09/21 07:20:38;;;;;;;;;;;;;;;15.69;100.00;99761.50;4994580;28;19937;-73
2023/09/21 07:23:03;;;;;;;;;;;;;;;15.69;100.00;99766.78;4997530;28;19924;-73
2023/09/21 07:25:28;;;;;;;;;;;;;;;15.68;100.00;99760.69;4996430;28;20093;-73
2023/09/21 07:27:54;;;;;;;;;;;;;;;15.69;100.00;99754.41;4993049;28;19921;-73
2023/09/21 07:30:23;;;;;;;;;;;;;;;15.70;100.00;99750.00;4993169;28;19924;-73
2023/09/21 07:32:49;;;;;;;;;;;;;;;15.70;100.00;99750.00;5002005;28;19983;-73
2023/09/21 07:35:14;;;;;;;;;;;;;;;15.69;100.00;99743.88;4998117;28;19917;-73
2023/09/21 07:37:46;;;;;;;;;;;;;;;15.71;100.00;99746.38;4999411;28;19956;-73
2023/09/21 07:40:14;;;;;;;;;;;;;;;15.71;100.00;99741.94;5004833;28;19987;-73
2023/09/21 07:42:43;;;;;;;;;;;;;;;15.72;100.00;99741.00;5004939;28;20098;-73
2023/09/21 07:45:09;;;;;;;;;;;;;;;15.72;100.00;99741.00;4996197;28;20224;-73
2023/09/21 07:47:34;;;;;;;;;;;;;;;15.73;100.00;99747.97;4996337;28;19960;-73
2023/09/21 07:49:59;;;;;;;;;;;;;;;15.74;100.00;99748.81;4996149;28;19925;-73
2023/09/21 07:52:26;;;;;;;;;;;;;;;15.76;100.00;99746.06;4999542;28;19928;-73
2023/09/21 07:54:51;;;;;;;;;;;;;;;15.75;100.00;99753.13;4995905;28;20235;-73
2023/09/21 07:57:16;;;;;;;;;;;;;;;15.75;100.00;99758.41;4995330;28;20157;-73
2023/09/21 07:59:42;;;;;;;;;;;;;;;15.75;100.00;99776.88;5002905;28;19924;-73
2023/09/21 08:02:07;;;;;;;;;;;;;;;15.75;100.00;99776.88;4997134;28;19924;-73
2023/09/21 08:04:32;;;;;;;;;;;;;;;15.73;100.00;99781.41;4996113;28;19921;-73
2023/09/21 08:06:59;;;;;;;;;;;;;;;15.74;100.00;99781.31;4995357;28;19924;-73
2023/09/21 08:09:25;;;;;;;;;;;;;;;15.74;100.00;99788.41;4995707;28;19925;-73
2023/09/21 08:11:50;;;;;;;;;;;;;;;15.75;100.00;99790.06;4995255;28;19921;-73
2023/09/21 08:14:15;;;;;;;;;;;;;;;15.74;100.00;99793.69;4995341;28;20144;-73
2023/09/21 08:16:40;;;;;;;;;;;;;;;15.74;100.00;99793.69;4994467;28;19917;-73
2023/09/21 08:19:06;;;;;;;;;;;;;;;15.75;100.00;99790.06;4995078;28;19983;-73
2023/09/21 08:21:31;;;;;;;;;;;;;;;15.73;100.00;99787.56;4995797;28;20001;-73
2023/09/21 08:23:57;;;;;;;;;;;;;;;15.74;100.00;99788.41;4977867;28;19917;-73
2023/09/21 08:26:22;;;;;;;;;;;;;;;15.73;100.00;99784.91;4995513;28;19918;-73
2023/09/21 08:28:47;;;;;;;;;;;;;;;15.73;100.00;99789.34;5007043;28;20216;-73
2023/09/21 08:31:13;;;;;;;;;;;;;;;15.71;100.00;99793.91;4995330;28;19918;-73
2023/09/21 08:33:38;;;;;;;;;;;;;;;15.70;100.00;99795.69;4977163;28;19921;-74
2023/09/21 08:36:05;;;;;;;;;;;;;;;15.67;100.00;99793.28;4995053;28;19925;-74
2023/09/21 08:38:30;;;;;;;;;;;;;;;15.69;100.00;99785.25;4999115;28;19917;-74
2023/09/21 08:40:56;;;;;;;;;;;;;;;15.67;100.00;99779.28;4994171;28;19917;-74
2023/09/21 08:43:26;;;;;;;;;;;;;;;15.65;100.00;99787.31;4998867;28;19996;-74
2023/09/21 08:45:52;;;;;;;;;;;;;;;15.63;100.00;99789.22;4995223;28;20250;-74
2023/09/21 08:48:20;;;;;;;;;;;;;;;15.65;100.00;99797.84;4995424;28;19918;-74
2023/09/21 08:50:48;;;;;;;;;;;;;;;15.68;100.00;99792.34;4994588;28;19918;-74
2023/09/21 08:53:18;;;;;;;;;;;;;;;15.70;100.00;99792.22;4994936;28;20120;-74
2023/09/21 08:55:45;;;;;;;;;;;;;;;15.74;100.00;99798.97;4993842;28;19917;-74
2023/09/21 08:58:11;;;;;;;;;;;;;;;15.65;100.00;99800.50;4995842;28;19909;-74
2023/09/21 09:00:39;;;;;;;;;;;;;;;15.63;100.00;99806.88;4987408;28;19922;-74
2023/09/21 09:03:04;;;;;;;;;;;;;;;15.58;100.00;99803.75;4994655;28;19944;-74
2023/09/21 09:05:30;;;;;;;;;;;;;;;15.51;100.00;99806.00;4994570;28;19945;-74
2023/09/21 09:07:57;;;;;;;;;;;;;;;15.53;100.00;99814.66;4995113;28;20590;-74
2023/09/21 09:10:23;;;;;;;;;;;;;;;15.54;100.00;99829.53;4995437;28;19919;-74
2023/09/21 09:13:02;;;;;;;;;;;;;;;15.54;100.00;99838.28;4994944;28;19928;-74
2023/09/21 09:15:32;;;;;;;;;;;;;;;15.55;100.00;99839.97;4994014;28;19917;-74
2023/09/21 09:18:01;;;;;;;;;;;;;;;15.57;100.00;99853.03;4993626;28;19917;-74
2023/09/21 09:20:28;;;;;;;;;;;;;;;15.56;100.00;99856.63;4992576;28;19918;-74
2023/09/21 09:22:53;;;;;;;;;;;;;;;15.55;100.00;99862.84;4994430;28;19917;-74
2023/09/21 09:25:21;;;;;;;;;;;;;;;15.52;100.00;99849.91;5009785;28;20192;-74
2023/09/21 09:27:46;;;;;;;;;;;;;;;15.46;100.00;99845.09;5002016;28;20208;-74
2023/09/21 09:30:12;;;;;;;;;;;;;;;15.54;100.00;99832.16;5001913;28;19913;-74
2023/09/21 09:32:41;;;;;;;;;;;;;;;15.67;100.00;99843.44;4997919;28;19945;-74
2023/09/21 09:35:13;;;;;;;;;;;;;;;15.68;100.00;99852.19;5000054;28;19953;-74
2023/09/21 09:37:38;;;;;;;;;;;;;;;15.60;100.00;99859.88;4991942;28;19918;-74
2023/09/21 09:40:10;;;;;;;;;;;;;;;15.54;100.00;99872.59;5015329;28;20235;-74
2023/09/21 09:42:40;;;;;;;;;;;;;;;15.54;100.00;99885.78;5013217;28;19921;-74
2023/09/21 09:45:06;;;;;;;;;;;;;;;15.54;100.00;99879.66;4994849;28;19922;-74
2023/09/21 09:47:35;;;;;;;;;;;;;;;15.53;100.00;99880.59;4995125;28;19961;-74
2023/09/21 09:50:04;;;;;;;;;;;;;;;15.52;100.00;99874.50;4995946;28;19924;-74
2023/09/21 09:52:30;;;;;;;;;;;;;;;15.53;100.00;99862.13;5008770;28;20008;-74
2023/09/21 09:54:56;;;;;;;;;;;;;;;15.52;100.00;99868.41;5006721;28;19939;-74
2023/09/21 09:57:22;;;;;;;;;;;;;;;15.53;100.00;99875.34;4998503;28;20224;-74
2023/09/21 09:59:47;;;;;;;;;;;;;;;15.52;100.00;99874.50;4997448;28;19984;-74
2023/09/21 10:02:14;;;;;;;;;;;;;;;15.53;100.00;99875.34;5000035;28;19918;-74
2023/09/21 10:04:40;;;;;;;;;;;;;;;15.52;100.00;99879.78;4997663;28;19921;-74
2023/09/21 10:07:06;;;;;;;;;;;;;;;15.51;100.00;99880.72;4998398;28;20187;-74
2023/09/21 10:09:32;;;;;;;;;;;;;;;15.50;100.00;99867.69;4997026;28;20235;-74
2023/09/21 10:11:58;;;;;;;;;;;;;;;15.49;100.00;99864.16;4999087;28;19921;-74
2023/09/21 10:14:24;;;;;;;;;;;;;;;15.49;100.00;99864.16;5005705;28;20012;-74
2023/09/21 10:16:56;;;;;;;;;;;;;;;15.50;100.00;99872.94;4997720;28;19949;-75
2023/09/21 10:19:25;;;;;;;;;;;;;;;15.51;100.00;99880.72;4998101;28;19979;-75
2023/09/21 10:21:59;;;;;;;;;;;;;;;15.51;100.00;99875.44;5000515;28;19917;-75
2023/09/21 10:24:27;;;;;;;;;;;;;;;15.48;100.00;99856.38;5014622;28;19984;-74
2023/09/21 10:26:53;;;;;;;;;;;;;;;15.51;100.00;99843.78;4997418;28;19918;-74
2023/09/21 10:29:20;;;;;;;;;;;;;;;15.50;100.00;99839.47;4998033;28;20123;-74
2023/09/21 10:31:53;;;;;;;;;;;;;;;15.52;100.00;99840.19;4997364;28;20021;-74
2023/09/21 10:34:21;;;;;;;;;;;;;;;15.52;100.00;99839.38;5012549;28;19917;-74
2023/09/21 10:37:00;;;;;;;;;;;;;;;15.56;100.00;99835.53;5005218;28;20544;-74
2023/09/21 10:39:25;;;;;;;;;;;;;;;15.52;100.00;99836.72;5012387;28;19925;-74
2023/09/21 10:41:55;;;;;;;;;;;;;;;15.53;100.00;99844.53;5003512;28;20159;-74
2023/09/21 10:44:39;;;;;;;;;;;;;;;15.50;100.00;99842.13;5003214;28;19948;-74
2023/09/21 10:47:04;;;;;;;;;;;;;;;15.51;100.00;99840.31;5005657;28;20228;-74
2023/09/21 10:49:33;;;;;;;;;;;;;;;15.49;100.00;99835.16;4997138;28;19917;-74
2023/09/21 10:51:59;;;;;;;;;;;;;;;15.51;100.00;99830.59;5000424;28;20116;-74
2023/09/21 10:54:25;;;;;;;;;;;;;;;15.54;100.00;99829.53;4997285;28;19918;-74
2023/09/21 10:56:50;;;;;;;;;;;;;;;15.55;100.00;99829.41;5000508;28;19924;-74
2023/09/21 10:59:16;;;;;;;;;;;;;;;15.55;100.00;99828.56;5010479;28;19917;-74
2023/09/21 11:01:41;;;;;;;;;;;;;;;15.54;100.00;99827.72;5011114;28;19925;-74
2023/09/21 11:04:07;;;;;;;;;;;;;;;15.54;100.00;99826.88;4996827;28;20211;-74
2023/09/21 11:06:32;;;;;;;;;;;;;;;15.57;100.00;99821.34;4997246;28;19924;-74
2023/09/21 11:08:59;;;;;;;;;;;;;;;15.55;100.00;99818.00;5007968;28;19917;-74
2023/09/21 11:11:25;;;;;;;;;;;;;;;15.54;100.00;99814.53;5014052;28;19909;-74
2023/09/21 11:13:50;;;;;;;;;;;;;;;15.54;100.00;99808.41;5005101;28;19944;-75
2023/09/21 11:16:16;;;;;;;;;;;;;;;15.56;100.00;99803.84;5004381;28;19918;-74
2023/09/21 11:18:41;;;;;;;;;;;;;;;15.60;100.00;99788.63;5003718;28;20112;-74
2023/09/21 11:21:10;;;;;;;;;;;;;;;15.61;100.00;99790.28;5001446;28;20109;-74
2023/09/21 11:23:36;;;;;;;;;;;;;;;15.62;100.00;99779.63;4996702;28;19980;-74
2023/09/21 11:26:02;;;;;;;;;;;;;;;15.68;100.00;99768.59;4997124;28;20186;-74
2023/09/21 11:28:27;;;;;;;;;;;;;;;15.74;100.00;99767.28;4996629;28;20213;-74
2023/09/21 11:30:53;;;;;;;;;;;;;;;15.69;100.00;99767.63;4994988;28;19917;-74
2023/09/21 11:33:27;;;;;;;;;;;;;;;15.60;100.00;99770.16;5000112;28;20132;-74
2023/09/21 11:35:53;;;;;;;;;;;;;;;15.53;100.00;99767.16;5012246;28;20159;-74
2023/09/21 11:38:18;;;;;;;;;;;;;;;15.54;100.00;99761.75;5000836;28;19917;-74
2023/09/21 11:40:44;;;;;;;;;;;;;;;15.57;100.00;99754.56;5015620;28;19913;-74
2023/09/21 11:43:20;;;;;;;;;;;;;;;15.59;100.00;99750.00;5014779;28;20226;-74
2023/09/21 11:45:48;;;;;;;;;;;;;;;15.59;100.00;99748.22;5001917;28;20216;-74
2023/09/21 11:48:13;;;;;;;;;;;;;;;15.64;100.00;99750.47;4999651;28;20035;-74
2023/09/21 11:50:41;;;;;;;;;;;;;;;15.65;100.00;99736.31;4994387;28;19917;-74
2023/09/21 11:53:07;;;;;;;;;;;;;;;15.55;100.00;99736.19;4987176;28;19999;-74
2023/09/21 11:55:33;;;;;;;;;;;;;;;15.61;100.00;99734.88;4988820;28;19925;-74
2023/09/21 11:58:07;;;;;;;;;;;;;;;15.58;100.00;99727.22;4992640;28;19918;-74
2023/09/21 12:00:43;;;;;;;;;;;;;;;15.55;100.00;99736.19;4992124;28;19917;-74
2023/09/21 12:05:34;;;;;;;;;;;;;;;15.54;100.00;99727.44;4994351;28;20224;-74
2023/09/21 12:07:59;;;;;;;;;;;;;;;15.51;100.00;99722.41;4998399;28;19945;-74
2023/09/21 12:10:25;;;;;;;;;;;;;;;15.55;100.00;99725.63;4997383;28;19917;-74
2023/09/21 12:12:51;;;;;;;;;;;;;;;15.57;100.00;99744.81;5000710;28;19922;-74
2023/09/21 12:15:17;;;;;;;;;;;;;;;15.52;100.00;99737.28;4985351;28;19977;-74
2023/09/21 12:17:43;;;;;;;;;;;;;;;15.57;100.00;99734.28;5007019;28;20219;-74
2023/09/21 12:20:17;;;;;;;;;;;;;;;15.63;100.00;99722.41;5003163;28;19925;-74
2023/09/21 12:22:42;;;;;;;;;;;;;;;15.70;100.00;99702.50;4998073;28;20228;-74
2023/09/21 12:25:08;;;;;;;;;;;;;;;15.74;100.00;99688.13;4995604;28;19921;-74
2023/09/21 12:27:35;;;;;;;;;;;;;;;15.78;100.00;99686.91;4995208;28;19972;-74
2023/09/21 12:30:00;;;;;;;;;;;;;;;15.80;100.00;99716.66;4995731;28;19917;-74
2023/09/21 12:32:28;;;;;;;;;;;;;;;15.83;100.00;99711.13;4995658;28;19921;-74
2023/09/21 12:34:54;;;;;;;;;;;;;;;15.87;100.00;99711.72;4995135;28;19918;-74
2023/09/21 12:37:19;;;;;;;;;;;;;;;15.89;100.00;99717.72;4988309;28;20115;-75
2023/09/21 12:39:44;;;;;;;;;;;;;;;15.89;100.00;99718.53;4995033;28;19921;-75
2023/09/21 12:42:12;;;;;;;;;;;;;;;15.88;100.00;99732.72;4995433;28;19918;-75